createdAt,value
2023-01-08T05:44:47.403Z,1.65
2023-01-08T05:47:13.919Z,1.80
2023-01-08T05:49:40.395Z,1.52
2023-01-08T05:52:07.137Z,0.90
2023-01-08T05:54:33.590Z,2.50
2023-01-08T05:57:00.108Z,3.50
2023-01-08T05:59:26.705Z,2.85
2023-01-08T06:01:53.207Z,3.45
2023-01-08T06:04:20.093Z,3.30
2023-01-08T06:06:46.630Z,4.40
2023-01-08T06:09:13.090Z,2.05
2023-01-08T06:11:39.572Z,4.07
2023-01-08T06:14:06.080Z,4.35
2023-01-08T06:16:32.658Z,4.07
2023-01-08T06:18:59.140Z,1.98
2023-01-08T06:21:25.625Z,0.95
2023-01-08T06:23:52.149Z,4.88
2023-01-08T06:26:18.665Z,0.88
2023-01-08T06:28:45.102Z,1.20
2023-01-08T06:31:11.574Z,1.05
2023-01-08T06:33:38.125Z,3.75
2023-01-08T06:36:05.332Z,2.83
2023-01-08T06:38:33.714Z,3.45
2023-01-08T06:41:08.778Z,2.38
2023-01-08T06:43:36.673Z,3.72
2023-01-08T06:46:04.659Z,3.95
2023-01-08T06:48:31.547Z,1.88
2023-01-08T06:51:00.467Z,3.33
2023-01-08T06:53:27.111Z,2.80
2023-01-08T06:55:57.010Z,1.48
2023-01-08T06:58:27.431Z,2.80
2023-01-08T07:00:54.042Z,2.53
2023-01-08T07:03:20.799Z,0.90
2023-01-08T07:05:47.495Z,0.40
2023-01-08T07:08:15.551Z,2.20
2023-01-08T07:10:43.592Z,2.67
2023-01-08T07:13:10.821Z,0.60
2023-01-08T07:15:37.384Z,1.33
2023-01-08T07:18:08.340Z,0.30
2023-01-08T07:20:35.722Z,3.13
2023-01-08T07:23:03.817Z,2.00
2023-01-08T07:25:30.852Z,1.95
2023-01-08T07:27:59.080Z,3.17
2023-01-08T07:30:30.242Z,5.07
2023-01-08T07:33:01.073Z,2.90
2023-01-08T07:35:28.216Z,3.30
2023-01-08T07:37:55.054Z,4.22
2023-01-08T07:40:21.673Z,3.03
2023-01-08T07:42:48.229Z,1.20
2023-01-08T07:45:14.880Z,0.32
2023-01-08T07:47:41.399Z,2.33
2023-01-08T07:50:08.642Z,0.82
2023-01-08T07:52:35.164Z,3.28
2023-01-08T07:55:01.709Z,5.50
2023-01-08T07:57:29.583Z,0.57
2023-01-08T07:59:56.091Z,0.45
2023-01-08T08:02:23.029Z,0.82
2023-01-08T08:04:49.800Z,1.20
2023-01-08T08:07:16.456Z,4.32
2023-01-08T08:09:44.107Z,2.28
2023-01-08T08:12:10.601Z,0.77
2023-01-08T08:14:37.110Z,2.00
2023-01-08T08:17:03.580Z,1.33
2023-01-08T08:19:30.123Z,1.42
2023-01-08T08:21:56.675Z,3.33
2023-01-08T08:24:23.226Z,2.28
2023-01-08T08:26:51.166Z,1.20
2023-01-08T08:29:17.709Z,1.05
2023-01-08T08:31:44.307Z,0.30
2023-01-08T08:34:10.900Z,1.92
2023-01-08T08:36:37.469Z,1.30
2023-01-08T08:39:04.595Z,1.15
2023-01-08T08:41:31.228Z,3.22
2023-01-08T08:43:57.855Z,2.78
2023-01-08T08:46:25.567Z,2.72
2023-01-08T08:48:52.206Z,3.33
2023-01-08T08:51:18.899Z,1.17
2023-01-08T08:53:45.433Z,0.30
2023-01-08T08:56:12.074Z,0.77
2023-01-08T08:58:41.527Z,0.57
2023-01-08T09:01:08.561Z,2.42
2023-01-08T09:03:35.483Z,0.75
2023-01-08T09:06:02.163Z,1.95
2023-01-08T09:08:29.556Z,0.80
2023-01-08T09:10:56.111Z,2.97
2023-01-08T09:13:22.911Z,1.67
2023-01-08T09:15:49.473Z,2.85
2023-01-08T09:18:16.197Z,0.82
2023-01-08T09:20:42.860Z,1.95
2023-01-08T09:23:09.647Z,2.47
2023-01-08T09:25:36.271Z,1.17
2023-01-08T09:28:06.202Z,2.22
2023-01-08T09:30:33.288Z,1.40
2023-01-08T09:33:02.739Z,0.30
2023-01-08T09:35:29.996Z,1.55
2023-01-08T09:37:56.716Z,1.55
2023-01-08T09:40:28.369Z,0.50
2023-01-08T09:42:59.726Z,1.52
2023-01-08T09:45:35.886Z,1.23
2023-01-08T09:48:07.499Z,2.55
2023-01-08T09:50:34.748Z,1.77
2023-01-08T09:53:01.783Z,2.78
2023-01-08T09:55:32.470Z,2.55
2023-01-08T09:58:02.932Z,4.00
2023-01-08T10:00:33.814Z,3.17
2023-01-08T10:03:00.654Z,2.75
2023-01-08T10:05:28.522Z,1.65
2023-01-08T10:07:55.452Z,2.70
2023-01-08T10:10:26.967Z,1.05
2023-01-08T10:12:55.529Z,1.48
2023-01-08T10:15:22.806Z,0.70
2023-01-08T10:18:00.791Z,3.63
2023-01-08T10:20:28.797Z,3.38
2023-01-08T10:22:56.511Z,1.25
2023-01-08T10:25:26.699Z,1.25
2023-01-08T10:27:58.095Z,2.75
2023-01-08T10:30:30.739Z,1.08
2023-01-08T10:33:03.308Z,0.68
2023-01-08T10:35:38.789Z,2.28
2023-01-08T10:38:05.669Z,1.48
2023-01-08T10:40:48.431Z,1.65
2023-01-08T10:43:18.689Z,2.83
2023-01-08T10:45:57.484Z,0.95
2023-01-08T10:48:30.009Z,1.30
2023-01-08T10:51:23.632Z,1.85
2023-01-08T10:53:51.120Z,1.92
2023-01-08T10:56:26.561Z,2.10
2023-01-08T10:58:53.941Z,2.53
2023-01-08T11:01:26.476Z,2.60
2023-01-08T11:03:56.720Z,1.95
2023-01-08T11:06:27.525Z,3.60
2023-01-08T11:09:03.217Z,3.72
2023-01-08T11:11:35.445Z,2.63
2023-01-08T11:14:16.472Z,1.33
2023-01-08T11:16:43.451Z,3.90
2023-01-08T11:19:19.819Z,1.40
2023-01-08T11:22:04.506Z,2.90
2023-01-08T11:24:38.967Z,0.20
2023-01-08T11:27:13.692Z,1.38
2023-01-08T11:29:45.845Z,1.13
2023-01-08T11:32:29.223Z,1.10
2023-01-08T11:37:48.151Z,1.55
2023-01-08T11:40:17.088Z,3.20
2023-01-08T11:43:28.126Z,1.50
2023-01-08T11:46:11.096Z,1.52
2023-01-08T11:49:02.173Z,2.92
2023-01-08T11:51:37.880Z,2.08
2023-01-08T11:54:15.227Z,0.20
2023-01-08T11:56:59.934Z,0.20
2023-01-08T11:59:53.272Z,0.20
2023-01-08T12:02:29.067Z,0.10
2023-01-08T12:05:02.489Z,0.10
2023-01-08T12:07:56.453Z,0.20
2023-01-08T12:10:38.049Z,0.20
2023-01-08T12:13:17.004Z,0.20
2023-01-08T12:16:11.537Z,0.30
2023-01-08T12:18:41.223Z,0.20
2023-01-08T12:21:32.601Z,0.20
2023-01-08T12:24:01.807Z,0.20
2023-01-08T12:26:50.696Z,0.20
2023-01-08T12:29:36.085Z,0.20
2023-01-08T12:32:58.066Z,1.58
2023-01-08T12:35:36.237Z,0.20
2023-01-08T12:38:19.017Z,0.10
2023-01-08T12:40:51.724Z,0.20
2023-01-08T12:43:44.932Z,0.20
2023-01-08T12:46:16.872Z,0.20
2023-01-08T12:48:46.310Z,0.22
2023-01-08T12:51:41.057Z,0.20
2023-01-08T12:54:27.415Z,0.28
2023-01-08T12:56:59.739Z,0.20
2023-01-08T13:00:00.171Z,0.20
2023-01-08T13:02:49.934Z,0.30
2023-01-08T13:05:19.125Z,0.20
2023-01-08T13:07:53.854Z,0.20
2023-01-08T13:10:35.524Z,0.20
2023-01-08T13:13:03.293Z,0.20
2023-01-08T13:15:31.317Z,0.20
2023-01-08T13:18:05.515Z,0.25
2023-01-08T13:20:32.687Z,0.20
2023-01-08T13:23:02.174Z,0.20
2023-01-08T13:25:38.583Z,0.20
2023-01-08T13:28:27.948Z,0.20
2023-01-08T13:30:55.765Z,0.20
2023-01-08T13:33:27.043Z,0.25
2023-01-08T13:36:13.440Z,0.20
2023-01-08T13:38:40.688Z,0.20
2023-01-08T13:41:31.744Z,0.30
2023-01-08T13:44:01.856Z,0.20
2023-01-08T13:46:29.042Z,0.20
2023-01-08T13:49:15.415Z,0.20
2023-01-08T13:51:44.971Z,0.20
2023-01-08T13:54:19.524Z,0.20
2023-01-08T13:56:53.828Z,0.20
2023-01-08T13:59:33.678Z,0.20
2023-01-08T14:02:01.357Z,0.20
2023-01-08T14:04:28.339Z,0.20
2023-01-08T14:07:14.731Z,0.20
2023-01-08T14:09:43.787Z,0.20
2023-01-08T14:12:17.207Z,0.20
2023-01-08T14:14:50.007Z,0.20
2023-01-08T14:17:18.078Z,0.20
2023-01-08T14:19:45.474Z,0.20
2023-01-08T14:22:18.634Z,0.20
2023-01-08T14:27:26.857Z,0.20
2023-01-08T14:29:53.646Z,0.20
2023-01-08T14:32:23.664Z,0.20
2023-01-08T14:34:52.555Z,0.22
2023-01-08T14:37:19.739Z,0.20
2023-01-08T14:39:54.498Z,0.20
2023-01-08T14:42:42.196Z,1.45
2023-01-08T14:45:21.534Z,0.20
2023-01-08T14:47:50.968Z,0.20
2023-01-08T14:50:25.576Z,0.20
2023-01-08T14:52:54.826Z,0.20
2023-01-08T14:55:21.939Z,0.20
2023-01-08T14:57:54.495Z,0.30
2023-01-08T15:00:25.439Z,0.20
2023-01-08T15:02:52.327Z,0.20
2023-01-08T15:05:31.061Z,0.20
2023-01-08T15:08:24.765Z,0.10
2023-01-08T15:11:04.562Z,0.20
2023-01-08T15:13:37.914Z,0.20
2023-01-08T15:16:17.303Z,0.20
2023-01-08T15:18:52.156Z,0.20
2023-01-08T15:21:21.264Z,0.20
2023-01-08T15:23:51.548Z,0.20
2023-01-08T15:26:18.619Z,0.20
2023-01-08T15:29:06.237Z,0.22
2023-01-08T15:31:53.038Z,0.20
2023-01-08T15:34:20.431Z,0.20
2023-01-08T15:36:47.746Z,0.20
2023-01-08T15:39:14.416Z,0.15
2023-01-08T15:41:59.596Z,0.20
2023-01-08T15:44:26.243Z,0.20
2023-01-08T15:46:53.019Z,0.20
2023-01-08T15:49:20.298Z,0.20
2023-01-08T15:51:49.468Z,0.20
2023-01-08T15:54:16.178Z,0.20
2023-01-08T15:57:03.500Z,0.20
2023-01-08T15:59:31.519Z,0.20
2023-01-08T16:01:58.239Z,0.30
2023-01-08T16:04:24.963Z,0.20
2023-01-08T16:06:51.665Z,0.20
2023-01-08T16:09:18.312Z,0.20
2023-01-08T16:11:44.920Z,0.20
2023-01-08T16:14:11.647Z,0.20
2023-01-08T16:16:38.375Z,0.20
2023-01-08T16:19:05.025Z,0.20
2023-01-08T16:21:31.668Z,0.20
2023-01-08T16:23:58.271Z,0.20
2023-01-08T16:26:24.783Z,0.20
2023-01-08T16:28:51.441Z,0.20
2023-01-08T16:31:18.155Z,0.20
2023-01-08T16:33:45.179Z,0.20
2023-01-08T16:36:11.789Z,0.20
2023-01-08T16:38:38.354Z,0.20
2023-01-08T16:41:06.030Z,0.20
2023-01-08T16:43:41.122Z,0.20
2023-01-08T16:46:12.822Z,0.20
2023-01-08T16:48:40.430Z,0.20
2023-01-08T16:51:07.116Z,0.20
2023-01-08T16:53:35.633Z,0.10
2023-01-08T16:56:03.767Z,0.20
2023-01-08T16:58:30.914Z,0.20
2023-01-08T17:00:58.583Z,0.20
2023-01-08T17:03:25.223Z,0.20
2023-01-08T17:05:51.852Z,0.20
2023-01-08T17:08:19.944Z,0.20
2023-01-08T17:10:47.078Z,0.20
2023-01-08T17:13:13.693Z,0.20
2023-01-08T17:15:40.723Z,0.20
2023-01-08T17:18:07.251Z,0.10
2023-01-08T17:20:33.992Z,0.30
2023-01-08T17:23:01.569Z,0.20
2023-01-08T17:25:48.454Z,0.20
2023-01-08T17:28:14.980Z,0.20
2023-01-08T17:30:41.651Z,0.20
2023-01-08T17:33:08.214Z,0.20
2023-01-08T17:35:34.782Z,0.20
2023-01-08T17:38:01.400Z,0.20
2023-01-08T17:40:28.023Z,0.20
2023-01-08T17:42:55.705Z,0.20
2023-01-08T17:45:22.292Z,0.22
2023-01-08T17:47:48.820Z,0.20
2023-01-08T17:50:15.543Z,0.20
2023-01-08T17:52:42.104Z,0.20
2023-01-08T17:55:08.878Z,0.20
2023-01-08T17:57:35.522Z,0.20
2023-01-08T18:00:02.184Z,0.20
2023-01-08T18:02:31.500Z,0.20
2023-01-08T18:05:16.746Z,0.20
2023-01-08T18:08:03.765Z,0.20
2023-01-08T18:10:50.617Z,0.20
2023-01-08T18:13:38.101Z,0.17
2023-01-08T18:16:25.859Z,0.20
2023-01-08T18:19:12.988Z,0.30
2023-01-08T18:22:00.993Z,0.20
2023-01-08T18:24:47.895Z,0.20
2023-01-08T18:27:34.757Z,0.10
2023-01-08T18:30:22.080Z,0.20
2023-01-08T18:33:09.068Z,0.20
2023-01-08T18:35:55.945Z,0.20
2023-01-08T18:38:43.674Z,0.20
2023-01-08T18:41:49.165Z,0.20
2023-01-08T18:44:36.088Z,0.22
2023-01-08T18:47:24.688Z,0.22
2023-01-08T18:50:12.095Z,0.20
2023-01-08T18:52:58.960Z,0.20
2023-01-08T18:55:46.001Z,0.20
2023-01-08T18:58:32.951Z,0.20
2023-01-08T19:01:20.115Z,0.20
2023-01-08T19:04:07.370Z,0.20
2023-01-08T19:06:54.322Z,0.20
2023-01-08T19:09:41.227Z,0.20
2023-01-08T19:12:30.721Z,0.20
2023-01-08T19:15:19.974Z,0.20
2023-01-08T19:18:08.868Z,0.20
2023-01-08T19:20:57.094Z,0.20
2023-01-08T19:23:46.377Z,0.22
2023-01-08T19:26:33.340Z,0.22
2023-01-08T19:29:20.441Z,0.20
2023-01-08T19:32:07.648Z,0.20
2023-01-08T19:34:54.765Z,0.20
2023-01-08T19:37:42.989Z,0.20
2023-01-08T19:40:33.285Z,0.20
2023-01-08T19:43:38.827Z,0.20
2023-01-08T19:46:25.790Z,0.20
2023-01-08T19:49:12.670Z,0.20
2023-01-08T19:52:02.332Z,0.20
2023-01-08T19:54:49.233Z,0.20
2023-01-08T19:57:38.303Z,0.20
2023-01-08T20:00:25.433Z,0.20
2023-01-08T20:03:19.587Z,0.20
2023-01-08T20:06:12.290Z,0.20
2023-01-08T20:09:02.275Z,0.20
2023-01-08T20:11:49.277Z,0.20
2023-01-08T20:14:38.940Z,0.20
2023-01-08T20:17:25.785Z,0.28
2023-01-08T20:20:13.170Z,0.20
2023-01-08T20:22:59.989Z,0.20
2023-01-08T20:25:46.937Z,0.20
2023-01-08T20:28:35.449Z,0.20
2023-01-08T20:31:26.042Z,0.20
2023-01-08T20:34:15.689Z,0.25
2023-01-08T20:37:06.318Z,0.20
2023-01-08T20:39:53.170Z,0.20
2023-01-08T20:42:45.498Z,3.60
